sensor_id;sensor_type;location;lat;lon;timestamp;pressure;altitude;pressure_sealevel;temperature;humidity
32638;BME280;19045;52.268;10.506;2022-12-18T00:02:02;102072.72;;;-5.84;94.20
32638;BME280;19045;52.268;10.506;2022-12-18T00:04:29;102069.28;;;-5.85;93.79
32638;BME280;19045;52.268;10.506;2022-12-18T00:06:57;102067.00;;;-5.89;93.34
32638;BME280;19045;52.268;10.506;2022-12-18T00:09:24;102080.53;;;-5.95;93.33
32638;BME280;19045;52.268;10.506;2022-12-18T00:11:50;102074.06;;;-6.02;94.17
32638;BME280;19045;52.268;10.506;2022-12-18T00:14:17;102083.81;;;-6.04;93.31
32638;BME280;19045;52.268;10.506;2022-12-18T00:16:44;102087.03;;;-6.01;93.69
32638;BME280;19045;52.268;10.506;2022-12-18T00:19:12;102086.53;;;-6.06;92.99
32638;BME280;19045;52.268;10.506;2022-12-18T00:21:44;102090.50;;;-6.13;93.06
32638;BME280;19045;52.268;10.506;2022-12-18T00:24:12;102092.00;;;-6.21;92.58
32638;BME280;19045;52.268;10.506;2022-12-18T00:26:39;102090.16;;;-6.32;93.12
32638;BME280;19045;52.268;10.506;2022-12-18T00:29:07;102088.28;;;-6.30;93.93
32638;BME280;19045;52.268;10.506;2022-12-18T00:31:37;102098.59;;;-6.29;94.10
32638;BME280;19045;52.268;10.506;2022-12-18T00:34:03;102089.94;;;-6.29;93.52
32638;BME280;19045;52.268;10.506;2022-12-18T00:36:32;102086.47;;;-6.30;93.70
32638;BME280;19045;52.268;10.506;2022-12-18T00:39:00;102087.34;;;-6.42;94.16
32638;BME280;19045;52.268;10.506;2022-12-18T00:41:28;102086.19;;;-6.38;94.78
32638;BME280;19045;52.268;10.506;2022-12-18T00:44:14;102084.84;;;-6.43;94.13
32638;BME280;19045;52.268;10.506;2022-12-18T00:46:41;102094.66;;;-6.34;93.97
32638;BME280;19045;52.268;10.506;2022-12-18T00:49:18;102097.28;;;-6.34;94.09
32638;BME280;19045;52.268;10.506;2022-12-18T00:51:45;102105.72;;;-6.31;93.59
32638;BME280;19045;52.268;10.506;2022-12-18T00:54:12;102112.41;;;-6.39;93.03
32638;BME280;19045;52.268;10.506;2022-12-18T00:56:40;102106.47;;;-6.41;92.94
32638;BME280;19045;52.268;10.506;2022-12-18T00:59:07;102109.81;;;-6.52;93.07
32638;BME280;19045;52.268;10.506;2022-12-18T01:01:33;102115.25;;;-6.55;92.93
32638;BME280;19045;52.268;10.506;2022-12-18T01:04:01;102122.91;;;-6.64;93.73
32638;BME280;19045;52.268;10.506;2022-12-18T01:06:28;102119.03;;;-6.59;93.98
32638;BME280;19045;52.268;10.506;2022-12-18T01:08:54;102123.31;;;-6.70;93.36
32638;BME280;19045;52.268;10.506;2022-12-18T01:11:21;102121.66;;;-6.71;94.31
32638;BME280;19045;52.268;10.506;2022-12-18T01:13:49;102114.22;;;-6.65;93.91
32638;BME280;19045;52.268;10.506;2022-12-18T01:16:17;102123.41;;;-6.72;94.00
32638;BME280;19045;52.268;10.506;2022-12-18T01:18:44;102123.63;;;-6.75;93.91
32638;BME280;19045;52.268;10.506;2022-12-18T01:21:12;102127.28;;;-6.77;93.88
32638;BME280;19045;52.268;10.506;2022-12-18T01:23:39;102122.91;;;-6.77;93.94
32638;BME280;19045;52.268;10.506;2022-12-18T01:26:07;102129.25;;;-6.81;93.68
32638;BME280;19045;52.268;10.506;2022-12-18T01:28:34;102137.09;;;-6.94;93.61
32638;BME280;19045;52.268;10.506;2022-12-18T01:31:14;102142.84;;;-6.89;93.65
32638;BME280;19045;52.268;10.506;2022-12-18T01:33:41;102137.19;;;-6.95;93.46
32638;BME280;19045;52.268;10.506;2022-12-18T01:36:11;102142.84;;;-6.89;93.68
32638;BME280;19045;52.268;10.506;2022-12-18T01:38:40;102144.72;;;-6.91;92.63
32638;BME280;19045;52.268;10.506;2022-12-18T01:41:08;102140.53;;;-6.93;93.25
32638;BME280;19045;52.268;10.506;2022-12-18T01:43:49;102138.66;;;-6.91;93.68
32638;BME280;19045;52.268;10.506;2022-12-18T01:46:20;102152.56;;;-6.91;92.80
32638;BME280;19045;52.268;10.506;2022-12-18T01:48:49;102138.88;;;-6.94;92.91
32638;BME280;19045;52.268;10.506;2022-12-18T01:51:17;102133.09;;;-6.99;93.76
32638;BME280;19045;52.268;10.506;2022-12-18T01:53:45;102123.81;;;-7.03;92.90
32638;BME280;19045;52.268;10.506;2022-12-18T01:56:15;102124.84;;;-7.06;92.88
32638;BME280;19045;52.268;10.506;2022-12-18T01:58:50;102134.47;;;-7.06;92.98
32638;BME280;19045;52.268;10.506;2022-12-18T02:01:22;102140.19;;;-7.14;93.41
32638;BME280;19045;52.268;10.506;2022-12-18T02:03:49;102136.31;;;-7.08;92.97
32638;BME280;19045;52.268;10.506;2022-12-18T02:06:20;102138.22;;;-7.10;94.17
32638;BME280;19045;52.268;10.506;2022-12-18T02:08:58;102128.25;;;-7.18;93.44
32638;BME280;19045;52.268;10.506;2022-12-18T02:11:36;102128.59;;;-7.22;93.95
32638;BME280;19045;52.268;10.506;2022-12-18T02:14:17;102123.53;;;-7.25;94.46
32638;BME280;19045;52.268;10.506;2022-12-18T02:16:53;102130.34;;;-7.23;94.23
32638;BME280;19045;52.268;10.506;2022-12-18T02:19:43;102136.84;;;-7.16;94.00
32638;BME280;19045;52.268;10.506;2022-12-18T02:22:21;102140.69;;;-7.21;93.74
32638;BME280;19045;52.268;10.506;2022-12-18T02:25:00;102143.91;;;-7.30;94.02
32638;BME280;19045;52.268;10.506;2022-12-18T02:27:33;102139.09;;;-7.37;93.77
32638;BME280;19045;52.268;10.506;2022-12-18T02:30:03;102137.97;;;-7.32;95.21
32638;BME280;19045;52.268;10.506;2022-12-18T02:32:33;102138.69;;;-7.30;94.29
32638;BME280;19045;52.268;10.506;2022-12-18T02:35:02;102137.00;;;-7.32;94.60
32638;BME280;19045;52.268;10.506;2022-12-18T02:37:31;102137.97;;;-7.32;94.36
32638;BME280;19045;52.268;10.506;2022-12-18T02:39:59;102130.72;;;-7.29;94.85
32638;BME280;19045;52.268;10.506;2022-12-18T02:42:27;102143.19;;;-7.32;94.38
32638;BME280;19045;52.268;10.506;2022-12-18T02:44:58;102136.28;;;-7.34;94.06
32638;BME280;19045;52.268;10.506;2022-12-18T02:47:29;102142.84;;;-7.28;95.74
32638;BME280;19045;52.268;10.506;2022-12-18T02:50:03;102134.13;;;-7.14;94.74
32638;BME280;19045;52.268;10.506;2022-12-18T02:52:37;102139.63;;;-7.19;93.58
32638;BME280;19045;52.268;10.506;2022-12-18T02:55:16;102145.69;;;-7.18;93.45
32638;BME280;19045;52.268;10.506;2022-12-18T02:57:48;102144.97;;;-7.20;93.69
32638;BME280;19045;52.268;10.506;2022-12-18T03:00:19;102144.13;;;-7.21;93.62
32638;BME280;19045;52.268;10.506;2022-12-18T03:02:51;102140.59;;;-7.20;94.50
32638;BME280;19045;52.268;10.506;2022-12-18T03:05:22;102135.03;;;-7.28;94.16
32638;BME280;19045;52.268;10.506;2022-12-18T03:07:55;102142.38;;;-7.20;94.19
32638;BME280;19045;52.268;10.506;2022-12-18T03:10:26;102143.22;;;-7.20;94.41
32638;BME280;19045;52.268;10.506;2022-12-18T03:12:58;102135.03;;;-7.28;94.67
32638;BME280;19045;52.268;10.506;2022-12-18T03:15:30;102132.97;;;-7.23;94.50
32638;BME280;19045;52.268;10.506;2022-12-18T03:18:02;102137.16;;;-7.20;93.66
32638;BME280;19045;52.268;10.506;2022-12-18T03:20:32;102139.41;;;-7.28;94.06
32638;BME280;19045;52.268;10.506;2022-12-18T03:23:06;102145.59;;;-7.29;94.15
32638;BME280;19045;52.268;10.506;2022-12-18T03:25:34;102141.06;;;-7.40;94.57
32638;BME280;19045;52.268;10.506;2022-12-18T03:28:05;102138.69;;;-7.30;94.96
32638;BME280;19045;52.268;10.506;2022-12-18T03:30:37;102142.22;;;-7.32;93.27
32638;BME280;19045;52.268;10.506;2022-12-18T03:33:08;102131.78;;;-7.32;94.61
32638;BME280;19045;52.268;10.506;2022-12-18T03:35:39;102138.56;;;-7.29;93.16
32638;BME280;19045;52.268;10.506;2022-12-18T03:38:06;102140.81;;;-7.23;93.65
32638;BME280;19045;52.268;10.506;2022-12-18T03:40:43;102126.47;;;-7.30;93.09
32638;BME280;19045;52.268;10.506;2022-12-18T03:43:16;102130.00;;;-7.31;93.10
32638;BME280;19045;52.268;10.506;2022-12-18T03:45:51;102125.84;;;-7.34;92.90
32638;BME280;19045;52.268;10.506;2022-12-18T03:48:24;102122.66;;;-7.39;94.85
32638;BME280;19045;52.268;10.506;2022-12-18T03:50:57;102128.53;;;-7.35;94.29
32638;BME280;19045;52.268;10.506;2022-12-18T03:53:34;102128.66;;;-7.37;93.60
32638;BME280;19045;52.268;10.506;2022-12-18T03:56:03;102129.78;;;-7.41;94.25
32638;BME280;19045;52.268;10.506;2022-12-18T03:58:32;102126.44;;;-7.43;93.92
32638;BME280;19045;52.268;10.506;2022-12-18T04:01:11;102133.72;;;-7.48;93.64
32638;BME280;19045;52.268;10.506;2022-12-18T04:03:41;102129.97;;;-7.44;93.63
32638;BME280;19045;52.268;10.506;2022-12-18T04:06:09;102134.94;;;-7.53;93.18
32638;BME280;19045;52.268;10.506;2022-12-18T04:08:37;102127.66;;;-7.48;93.53
32638;BME280;19045;52.268;10.506;2022-12-18T04:11:05;102126.16;;;-7.52;93.15
32638;BME280;19045;52.268;10.506;2022-12-18T04:13:34;102113.84;;;-7.63;92.56
32638;BME280;19045;52.268;10.506;2022-12-18T04:16:01;102118.06;;;-7.74;93.83
32638;BME280;19045;52.268;10.506;2022-12-18T04:18:29;102118.06;;;-7.74;94.51
32638;BME280;19045;52.268;10.506;2022-12-18T04:20:56;102126.25;;;-7.66;93.95
32638;BME280;19045;52.268;10.506;2022-12-18T04:23:23;102125.69;;;-7.71;94.65
32638;BME280;19045;52.268;10.506;2022-12-18T04:25:49;102122.34;;;-7.73;94.22
32638;BME280;19045;52.268;10.506;2022-12-18T04:28:16;102119.38;;;-7.81;95.02
32638;BME280;19045;52.268;10.506;2022-12-18T04:30:43;102132.34;;;-7.80;94.53
32638;BME280;19045;52.268;10.506;2022-12-18T04:33:10;102140.81;;;-7.76;94.28
32638;BME280;19045;52.268;10.506;2022-12-18T04:35:38;102146.66;;;-7.73;94.12
32638;BME280;19045;52.268;10.506;2022-12-18T04:38:05;102138.00;;;-7.73;93.64
32638;BME280;19045;52.268;10.506;2022-12-18T04:40:35;102139.41;;;-7.82;93.20
32638;BME280;19045;52.268;10.506;2022-12-18T04:43:01;102141.66;;;-7.76;93.97
32638;BME280;19045;52.268;10.506;2022-12-18T04:45:29;102144.91;;;-7.87;94.30
32638;BME280;19045;52.268;10.506;2022-12-18T04:47:56;102146.94;;;-7.77;95.12
32638;BME280;19045;52.268;10.506;2022-12-18T04:50:23;102130.38;;;-7.76;93.35
32638;BME280;19045;52.268;10.506;2022-12-18T04:52:51;102136.78;;;-7.82;94.13
32638;BME280;19045;52.268;10.506;2022-12-18T04:55:18;102141.28;;;-7.84;93.45
32638;BME280;19045;52.268;10.506;2022-12-18T04:57:45;102139.59;;;-7.85;93.59
32638;BME280;19045;52.268;10.506;2022-12-18T05:00:14;102132.63;;;-7.85;94.66
32638;BME280;19045;52.268;10.506;2022-12-18T05:02:41;102129.34;;;-7.88;94.14
32638;BME280;19045;52.268;10.506;2022-12-18T05:05:08;102125.63;;;-7.84;93.91
32638;BME280;19045;52.268;10.506;2022-12-18T05:07:37;102135.66;;;-7.78;93.72
32638;BME280;19045;52.268;10.506;2022-12-18T05:10:08;102131.03;;;-7.87;93.90
32638;BME280;19045;52.268;10.506;2022-12-18T05:12:35;102117.09;;;-7.86;94.22
32638;BME280;19045;52.268;10.506;2022-12-18T05:15:22;102106.44;;;-7.83;93.49
32638;BME280;19045;52.268;10.506;2022-12-18T05:17:49;102110.91;;;-7.85;93.35
32638;BME280;19045;52.268;10.506;2022-12-18T05:20:15;102104.28;;;-7.76;92.95
32638;BME280;19045;52.268;10.506;2022-12-18T05:22:43;102118.94;;;-7.88;93.97
32638;BME280;19045;52.268;10.506;2022-12-18T05:25:11;102126.66;;;-7.87;94.35
32638;BME280;19045;52.268;10.506;2022-12-18T05:27:38;102115.59;;;-7.90;93.95
32638;BME280;19045;52.268;10.506;2022-12-18T05:30:06;102123.94;;;-7.85;93.64
32638;BME280;19045;52.268;10.506;2022-12-18T05:32:32;102128.72;;;-7.92;93.75
32638;BME280;19045;52.268;10.506;2022-12-18T05:34:59;102124.44;;;-7.93;93.77
32638;BME280;19045;52.268;10.506;2022-12-18T05:37:26;102127.41;;;-7.85;94.31
32638;BME280;19045;52.268;10.506;2022-12-18T05:39:53;102126.75;;;-7.88;93.70
32638;BME280;19045;52.268;10.506;2022-12-18T05:42:21;102129.34;;;-7.88;94.23
32638;BME280;19045;52.268;10.506;2022-12-18T05:44:47;102134.19;;;-7.82;94.04
32638;BME280;19045;52.268;10.506;2022-12-18T05:47:14;102130.13;;;-7.86;94.23
32638;BME280;19045;52.268;10.506;2022-12-18T05:49:40;102129.56;;;-7.91;93.09
32638;BME280;19045;52.268;10.506;2022-12-18T05:52:08;102128.50;;;-7.89;92.67
32638;BME280;19045;52.268;10.506;2022-12-18T05:54:35;102133.84;;;-7.90;93.33
32638;BME280;19045;52.268;10.506;2022-12-18T05:57:01;102133.41;;;-7.97;92.80
32638;BME280;19045;52.268;10.506;2022-12-18T05:59:29;102143.25;;;-8.02;93.28
32638;BME280;19045;52.268;10.506;2022-12-18T06:01:56;102146.69;;;-8.01;92.84
32638;BME280;19045;52.268;10.506;2022-12-18T06:04:22;102153.97;;;-7.92;93.30
32638;BME280;19045;52.268;10.506;2022-12-18T06:06:49;102158.25;;;-8.05;92.91
32638;BME280;19045;52.268;10.506;2022-12-18T06:09:15;102163.00;;;-8.12;93.46
32638;BME280;19045;52.268;10.506;2022-12-18T06:11:42;102166.00;;;-8.04;93.91
32638;BME280;19045;52.268;10.506;2022-12-18T06:14:09;102164.50;;;-8.08;93.05
32638;BME280;19045;52.268;10.506;2022-12-18T06:16:37;102181.44;;;-8.01;93.02
32638;BME280;19045;52.268;10.506;2022-12-18T06:19:05;102181.16;;;-8.10;93.85
32638;BME280;19045;52.268;10.506;2022-12-18T06:21:32;102175.03;;;-8.09;93.09
32638;BME280;19045;52.268;10.506;2022-12-18T06:23:59;102180.13;;;-8.08;93.62
32638;BME280;19045;52.268;10.506;2022-12-18T06:26:26;102186.91;;;-8.05;93.94
32638;BME280;19045;52.268;10.506;2022-12-18T06:28:52;102189.25;;;-8.01;93.04
32638;BME280;19045;52.268;10.506;2022-12-18T06:31:19;102197.19;;;-8.02;93.56
32638;BME280;19045;52.268;10.506;2022-12-18T06:33:47;102187.31;;;-7.97;93.56
32638;BME280;19045;52.268;10.506;2022-12-18T06:36:13;102180.88;;;-7.92;93.70
32638;BME280;19045;52.268;10.506;2022-12-18T06:38:42;102187.94;;;-7.94;92.60
32638;BME280;19045;52.268;10.506;2022-12-18T06:41:11;102187.94;;;-7.94;93.17
32638;BME280;19045;52.268;10.506;2022-12-18T06:43:38;102184.97;;;-8.02;93.34
32638;BME280;19045;52.268;10.506;2022-12-18T06:46:05;102180.13;;;-7.94;93.45
32638;BME280;19045;52.268;10.506;2022-12-18T06:48:32;102181.50;;;-7.88;92.87
32638;BME280;19045;52.268;10.506;2022-12-18T06:51:01;102186.19;;;-7.93;93.18
32638;BME280;19045;52.268;10.506;2022-12-18T06:53:28;102176.22;;;-8.01;93.43
32638;BME280;19045;52.268;10.506;2022-12-18T06:55:59;102196.63;;;-8.07;93.10
32638;BME280;19045;52.268;10.506;2022-12-18T06:58:27;102194.00;;;-8.07;93.24
32638;BME280;19045;52.268;10.506;2022-12-18T07:00:53;102195.22;;;-8.13;92.84
32638;BME280;19045;52.268;10.506;2022-12-18T07:03:25;102196.34;;;-8.17;92.84
32638;BME280;19045;52.268;10.506;2022-12-18T07:05:51;102200.72;;;-8.17;93.00
32638;BME280;19045;52.268;10.506;2022-12-18T07:08:19;102193.28;;;-8.09;92.58
32638;BME280;19045;52.268;10.506;2022-12-18T07:10:46;102190.09;;;-8.14;92.67
32638;BME280;19045;52.268;10.506;2022-12-18T07:13:14;102188.34;;;-8.14;93.33
32638;BME280;19045;52.268;10.506;2022-12-18T07:15:40;102196.53;;;-8.20;92.68
32638;BME280;19045;52.268;10.506;2022-12-18T07:18:07;102200.91;;;-8.20;93.66
32638;BME280;19045;52.268;10.506;2022-12-18T07:20:34;102203.06;;;-8.13;93.68
32638;BME280;19045;52.268;10.506;2022-12-18T07:23:01;102210.94;;;-8.14;93.40
32638;BME280;19045;52.268;10.506;2022-12-18T07:25:29;102222.03;;;-8.11;93.88
32638;BME280;19045;52.268;10.506;2022-12-18T07:27:56;102234.41;;;-8.00;93.76
32638;BME280;19045;52.268;10.506;2022-12-18T07:30:22;102229.13;;;-7.99;93.60
32638;BME280;19045;52.268;10.506;2022-12-18T07:32:49;102241.22;;;-7.98;93.24
32638;BME280;19045;52.268;10.506;2022-12-18T07:35:15;102251.00;;;-7.87;92.24
32638;BME280;19045;52.268;10.506;2022-12-18T07:37:42;102245.78;;;-7.73;91.63
32638;BME280;19045;52.268;10.506;2022-12-18T07:40:10;102256.28;;;-7.74;90.97
32638;BME280;19045;52.268;10.506;2022-12-18T07:42:38;102253.97;;;-7.79;90.45
32638;BME280;19045;52.268;10.506;2022-12-18T07:45:05;102249.88;;;-7.83;90.90
32638;BME280;19045;52.268;10.506;2022-12-18T07:47:34;102265.97;;;-7.91;91.17
32638;BME280;19045;52.268;10.506;2022-12-18T07:50:00;102252.69;;;-7.86;90.92
32638;BME280;19045;52.268;10.506;2022-12-18T07:52:27;102255.75;;;-7.79;91.84
32638;BME280;19045;52.268;10.506;2022-12-18T07:54:54;102271.47;;;-7.81;91.00
32638;BME280;19045;52.268;10.506;2022-12-18T07:57:21;102274.47;;;-7.73;91.35
32638;BME280;19045;52.268;10.506;2022-12-18T07:59:49;102274.81;;;-7.65;89.94
32638;BME280;19045;52.268;10.506;2022-12-18T08:02:15;102284.31;;;-7.50;89.83
32638;BME280;19045;52.268;10.506;2022-12-18T08:04:42;102282.13;;;-7.29;89.84
32638;BME280;19045;52.268;10.506;2022-12-18T08:07:08;102271.19;;;-7.21;88.50
32638;BME280;19045;52.268;10.506;2022-12-18T08:09:35;102279.44;;;-7.01;88.15
32638;BME280;19045;52.268;10.506;2022-12-18T08:12:02;102278.50;;;-6.73;87.36
32638;BME280;19045;52.268;10.506;2022-12-18T08:14:28;102275.78;;;-6.71;86.02
32638;BME280;19045;52.268;10.506;2022-12-18T08:16:56;102258.41;;;-6.08;84.39
32638;BME280;19045;52.268;10.506;2022-12-18T08:19:23;102262.44;;;-5.30;80.26
32638;BME280;19045;52.268;10.506;2022-12-18T08:21:50;102245.16;;;-4.15;74.80
32638;BME280;19045;52.268;10.506;2022-12-18T08:24:16;102239.94;;;-2.85;71.46
32638;BME280;19045;52.268;10.506;2022-12-18T08:26:43;102231.97;;;-2.21;65.51
32638;BME280;19045;52.268;10.506;2022-12-18T08:29:10;102226.13;;;-1.15;61.24
32638;BME280;19045;52.268;10.506;2022-12-18T08:31:36;102218.47;;;-0.41;58.36
32638;BME280;19045;52.268;10.506;2022-12-18T08:34:04;102212.63;;;-0.35;56.34
32638;BME280;19045;52.268;10.506;2022-12-18T08:36:31;102209.53;;;0.43;54.34
32638;BME280;19045;52.268;10.506;2022-12-18T08:38:58;102212.28;;;1.14;51.75
32638;BME280;19045;52.268;10.506;2022-12-18T08:41:24;102215.59;;;0.81;51.11
32638;BME280;19045;52.268;10.506;2022-12-18T08:43:51;102204.34;;;1.75;50.34
32638;BME280;19045;52.268;10.506;2022-12-18T08:46:37;102211.66;;;2.49;47.98
32638;BME280;19045;52.268;10.506;2022-12-18T08:49:05;102215.59;;;2.87;47.06
32638;BME280;19045;52.268;10.506;2022-12-18T08:51:33;102202.63;;;2.92;46.60
32638;BME280;19045;52.268;10.506;2022-12-18T08:54:00;102203.19;;;3.44;45.13
32638;BME280;19045;52.268;10.506;2022-12-18T08:56:27;102195.66;;;4.35;44.19
32638;BME280;19045;52.268;10.506;2022-12-18T08:58:55;102207.03;;;5.36;41.22
32638;BME280;19045;52.268;10.506;2022-12-18T09:01:23;102202.59;;;6.03;40.06
32638;BME280;19045;52.268;10.506;2022-12-18T09:03:50;102203.94;;;6.43;38.20
32638;BME280;19045;52.268;10.506;2022-12-18T09:06:21;102203.31;;;7.12;38.42
32638;BME280;19045;52.268;10.506;2022-12-18T09:08:48;102196.06;;;8.17;36.45
32638;BME280;19045;52.268;10.506;2022-12-18T09:11:20;102181.22;;;8.56;35.29
32638;BME280;19045;52.268;10.506;2022-12-18T09:13:47;102184.84;;;8.89;34.70
32638;BME280;19045;52.268;10.506;2022-12-18T09:16:15;102183.00;;;9.03;33.35
32638;BME280;19045;52.268;10.506;2022-12-18T09:18:42;102175.31;;;10.11;32.97
32638;BME280;19045;52.268;10.506;2022-12-18T09:21:10;102178.94;;;10.50;31.51
32638;BME280;19045;52.268;10.506;2022-12-18T09:23:38;102167.88;;;10.26;31.99
32638;BME280;19045;52.268;10.506;2022-12-18T09:26:05;102177.81;;;10.70;31.43
32638;BME280;19045;52.268;10.506;2022-12-18T09:28:32;102171.81;;;11.56;30.37
32638;BME280;19045;52.268;10.506;2022-12-18T09:31:04;102161.81;;;12.06;29.40
32638;BME280;19045;52.268;10.506;2022-12-18T09:33:30;102156.78;;;11.91;28.54
32638;BME280;19045;52.268;10.506;2022-12-18T09:35:57;102156.94;;;10.66;29.67
32638;BME280;19045;52.268;10.506;2022-12-18T09:38:24;102157.59;;;11.49;30.23
32638;BME280;19045;52.268;10.506;2022-12-18T09:40:54;102157.91;;;11.59;29.40
32638;BME280;19045;52.268;10.506;2022-12-18T09:43:26;102163.19;;;11.22;30.42
32638;BME280;19045;52.268;10.506;2022-12-18T09:45:58;102153.13;;;12.22;28.92
32638;BME280;19045;52.268;10.506;2022-12-18T09:48:29;102144.66;;;13.84;27.05
32638;BME280;19045;52.268;10.506;2022-12-18T09:51:00;102142.63;;;14.99;26.20
32638;BME280;19045;52.268;10.506;2022-12-18T09:53:32;102140.22;;;14.41;26.60
32638;BME280;19045;52.268;10.506;2022-12-18T09:56:03;102127.47;;;15.15;25.63
32638;BME280;19045;52.268;10.506;2022-12-18T09:58:33;102126.56;;;17.21;23.32
32638;BME280;19045;52.268;10.506;2022-12-18T10:01:02;102125.50;;;15.98;24.00
32638;BME280;19045;52.268;10.506;2022-12-18T10:03:28;102144.28;;;14.04;26.63
32638;BME280;19045;52.268;10.506;2022-12-18T10:06:03;102150.41;;;13.00;28.23
32638;BME280;19045;52.268;10.506;2022-12-18T10:08:39;102143.84;;;13.60;27.51
32638;BME280;19045;52.268;10.506;2022-12-18T10:11:27;102146.66;;;13.65;26.75
32638;BME280;19045;52.268;10.506;2022-12-18T10:13:59;102141.47;;;11.91;28.73
32638;BME280;19045;52.268;10.506;2022-12-18T10:16:36;102140.78;;;12.14;29.06
32638;BME280;19045;52.268;10.506;2022-12-18T10:19:20;102144.06;;;11.06;30.12
32638;BME280;19045;52.268;10.506;2022-12-18T10:21:55;102161.31;;;10.60;31.02
32638;BME280;19045;52.268;10.506;2022-12-18T10:24:28;102168.31;;;10.04;31.81
32638;BME280;19045;52.268;10.506;2022-12-18T10:27:08;102170.00;;;10.56;30.22
32638;BME280;19045;52.268;10.506;2022-12-18T10:29:36;102188.78;;;11.56;29.82
32638;BME280;19045;52.268;10.506;2022-12-18T10:32:02;102187.16;;;9.31;32.11
32638;BME280;19045;52.268;10.506;2022-12-18T10:34:30;102185.88;;;8.88;33.53
32638;BME280;19045;52.268;10.506;2022-12-18T10:36:57;102179.88;;;8.32;33.88
32638;BME280;19045;52.268;10.506;2022-12-18T10:39:27;102173.72;;;9.05;33.93
32638;BME280;19045;52.268;10.506;2022-12-18T10:42:11;102167.94;;;9.94;32.45
32638;BME280;19045;52.268;10.506;2022-12-18T10:44:42;102167.66;;;8.57;34.10
32638;BME280;19045;52.268;10.506;2022-12-18T10:47:12;102170.88;;;9.20;33.96
32638;BME280;19045;52.268;10.506;2022-12-18T10:49:48;102166.66;;;10.03;32.83
32638;BME280;19045;52.268;10.506;2022-12-18T10:52:17;102157.38;;;10.05;32.82
32638;BME280;19045;52.268;10.506;2022-12-18T10:54:49;102159.31;;;9.46;33.24
32638;BME280;19045;52.268;10.506;2022-12-18T10:57:31;102153.91;;;7.85;35.35
32638;BME280;19045;52.268;10.506;2022-12-18T11:00:19;102141.44;;;7.43;36.35
32638;BME280;19045;52.268;10.506;2022-12-18T11:02:46;102136.56;;;7.81;36.51
32638;BME280;19045;52.268;10.506;2022-12-18T11:05:24;102134.84;;;8.01;35.79
32638;BME280;19045;52.268;10.506;2022-12-18T11:07:51;102130.19;;;10.46;33.25
32638;BME280;19045;52.268;10.506;2022-12-18T11:10:21;102124.31;;;10.94;32.03
32638;BME280;19045;52.268;10.506;2022-12-18T11:12:49;102121.94;;;9.77;33.53
32638;BME280;19045;52.268;10.506;2022-12-18T11:15:20;102128.75;;;8.68;35.42
32638;BME280;19045;52.268;10.506;2022-12-18T11:17:48;102121.56;;;8.27;36.79
32638;BME280;19045;52.268;10.506;2022-12-18T11:20:29;102112.38;;;8.02;36.57
32638;BME280;19045;52.268;10.506;2022-12-18T11:22:58;102110.03;;;9.27;35.61
32638;BME280;19045;52.268;10.506;2022-12-18T11:25:30;102103.63;;;10.63;33.33
32638;BME280;19045;52.268;10.506;2022-12-18T11:28:00;102105.25;;;9.35;35.37
32638;BME280;19045;52.268;10.506;2022-12-18T11:30:29;102089.53;;;10.67;33.71
32638;BME280;19045;52.268;10.506;2022-12-18T11:33:00;102091.44;;;12.32;30.73
32638;BME280;19045;52.268;10.506;2022-12-18T11:35:37;102085.81;;;12.63;30.11
32638;BME280;19045;52.268;10.506;2022-12-18T11:38:10;102084.47;;;11.52;31.21
32638;BME280;19045;52.268;10.506;2022-12-18T11:40:39;102093.28;;;9.45;34.75
32638;BME280;19045;52.268;10.506;2022-12-18T11:43:13;102096.50;;;7.25;38.26
32638;BME280;19045;52.268;10.506;2022-12-18T11:45:48;102115.19;;;5.90;40.76
32638;BME280;19045;52.268;10.506;2022-12-18T11:48:18;102121.84;;;5.57;42.32
32638;BME280;19045;52.268;10.506;2022-12-18T11:50:50;102116.66;;;7.90;38.42
32638;BME280;19045;52.268;10.506;2022-12-18T11:53:17;102109.81;;;9.15;35.55
32638;BME280;19045;52.268;10.506;2022-12-18T11:55:51;102117.91;;;10.88;33.43
32638;BME280;19045;52.268;10.506;2022-12-18T11:58:32;102102.69;;;12.29;32.12
32638;BME280;19045;52.268;10.506;2022-12-18T12:01:17;102104.75;;;15.32;27.76
32638;BME280;19045;52.268;10.506;2022-12-18T12:04:07;102098.34;;;18.21;24.56
32638;BME280;19045;52.268;10.506;2022-12-18T12:06:45;102085.13;;;19.61;22.83
32638;BME280;19045;52.268;10.506;2022-12-18T12:09:20;102087.09;;;18.75;23.30
32638;BME280;19045;52.268;10.506;2022-12-18T12:12:01;102082.75;;;18.99;22.95
32638;BME280;19045;52.268;10.506;2022-12-18T12:14:46;102071.94;;;19.93;22.13
32638;BME280;19045;52.268;10.506;2022-12-18T12:17:22;102077.72;;;19.82;21.92
32638;BME280;19045;52.268;10.506;2022-12-18T12:19:57;102061.41;;;19.62;21.79
32638;BME280;19045;52.268;10.506;2022-12-18T12:22:35;102043.19;;;20.11;21.67
32638;BME280;19045;52.268;10.506;2022-12-18T12:25:17;102055.44;;;19.29;22.18
32638;BME280;19045;52.268;10.506;2022-12-18T12:27:52;102045.94;;;19.42;22.44
32638;BME280;19045;52.268;10.506;2022-12-18T12:30:29;102033.53;;;20.34;22.33
32638;BME280;19045;52.268;10.506;2022-12-18T12:33:11;102025.19;;;21.45;21.53
32638;BME280;19045;52.268;10.506;2022-12-18T12:35:47;102023.09;;;22.59;19.82
32638;BME280;19045;52.268;10.506;2022-12-18T12:38:22;102019.88;;;22.20;20.21
32638;BME280;19045;52.268;10.506;2022-12-18T12:40:54;102022.91;;;22.00;20.34
32638;BME280;19045;52.268;10.506;2022-12-18T12:43:28;102026.03;;;19.16;21.98
32638;BME280;19045;52.268;10.506;2022-12-18T12:46:04;102038.09;;;14.20;26.71
32638;BME280;19045;52.268;10.506;2022-12-18T12:48:35;102030.16;;;12.27;29.51
32638;BME280;19045;52.268;10.506;2022-12-18T12:51:12;102036.53;;;10.05;32.82
32638;BME280;19045;52.268;10.506;2022-12-18T12:53:40;102024.53;;;8.12;36.69
32638;BME280;19045;52.268;10.506;2022-12-18T12:56:10;102020.97;;;7.17;38.54